sensor_id;sensor_type;location;lat;lon;timestamp;P1;durP1;ratioP1;P2;durP2;ratioP2
54458;SDS011;40368;49.350;8.152;2023-02-01T00:00:52;19;;;30;;
54458;SDS011;40368;49.350;8.152;2023-02-01T00:01:59;23;;;33;;
54458;SDS011;40368;49.350;8.152;2023-02-01T00:02:52;19;;;25;;
54458;SDS011;40368;49.350;8.152;2023-02-01T00:03:52;19;;;26;;
54458;SDS011;40368;49.350;8.152;2023-02-01T00:04:52;18;;;22;;
54458;SDS011;40368;49.350;8.152;2023-02-01T00:05:55;21;;;52;;
54458;SDS011;40368;49.350;8.152;2023-02-01T00:06:52;17;;;29;;
54458;SDS011;40368;49.350;8.152;2023-02-01T00:07:52;17;;;22;;
54458;SDS011;40368;49.350;8.152;2023-02-01T00:08:52;17;;;26;;
54458;SDS011;40368;49.350;8.152;2023-02-01T00:09:52;21;;;44;;
54458;SDS011;40368;49.350;8.152;2023-02-01T00:10:57;16;;;38;;
54458;SDS011;40368;49.350;8.152;2023-02-01T00:11:52;17;;;23;;
54458;SDS011;40368;49.350;8.152;2023-02-01T00:12:52;19;;;21;;
54458;SDS011;40368;49.350;8.152;2023-02-01T00:13:52;17;;;30;;
54458;SDS011;40368;49.350;8.152;2023-02-01T00:14:52;15;;;16;;
54458;SDS011;40368;49.350;8.152;2023-02-01T00:15:53;18;;;24;;
54458;SDS011;40368;49.350;8.152;2023-02-01T00:16:52;19;;;25;;
54458;SDS011;40368;49.350;8.152;2023-02-01T00:17:53;16;;;18;;
54458;SDS011;40368;49.350;8.152;2023-02-01T00:18:56;17;;;23;;
54458;SDS011;40368;49.350;8.152;2023-02-01T00:19:52;19;;;37;;
54458;SDS011;40368;49.350;8.152;2023-02-01T00:20:52;16;;;23;;
54458;SDS011;40368;49.350;8.152;2023-02-01T00:21:53;16;;;24;;
54458;SDS011;40368;49.350;8.152;2023-02-01T00:22:52;20;;;27;;
54458;SDS011;40368;49.350;8.152;2023-02-01T00:23:52;17;;;33;;
54458;SDS011;40368;49.350;8.152;2023-02-01T00:24:52;16;;;23;;
54458;SDS011;40368;49.350;8.152;2023-02-01T00:25:52;18;;;30;;
54458;SDS011;40368;49.350;8.152;2023-02-01T00:26:52;17;;;28;;
54458;SDS011;40368;49.350;8.152;2023-02-01T00:27:52;17;;;19;;
54458;SDS011;40368;49.350;8.152;2023-02-01T00:28:52;18;;;21;;
54458;SDS011;40368;49.350;8.152;2023-02-01T00:29:53;17;;;19;;
54458;SDS011;40368;49.350;8.152;2023-02-01T00:30:55;21;;;42;;
54458;SDS011;40368;49.350;8.152;2023-02-01T00:31:52;18;;;35;;
54458;SDS011;40368;49.350;8.152;2023-02-01T00:32:52;20;;;35;;
54458;SDS011;40368;49.350;8.152;2023-02-01T00:33:52;21;;;31;;
54458;SDS011;40368;49.350;8.152;2023-02-01T00:37:52;15;;;31;;
54458;SDS011;40368;49.350;8.152;2023-02-01T00:38:52;18;;;36;;
54458;SDS011;40368;49.350;8.152;2023-02-01T00:39:52;18;;;29;;
54458;SDS011;40368;49.350;8.152;2023-02-01T00:40:52;18;;;23;;
54458;SDS011;40368;49.350;8.152;2023-02-01T00:41:52;17;;;23;;
54458;SDS011;40368;49.350;8.152;2023-02-01T00:42:52;20;;;31;;
54458;SDS011;40368;49.350;8.152;2023-02-01T00:43:52;17;;;21;;
54458;SDS011;40368;49.350;8.152;2023-02-01T00:44:52;18;;;25;;
54458;SDS011;40368;49.350;8.152;2023-02-01T00:45:52;17;;;19;;
54458;SDS011;40368;49.350;8.152;2023-02-01T00:46:52;21;;;37;;
54458;SDS011;40368;49.350;8.152;2023-02-01T00:47:52;17;;;18;;
54458;SDS011;40368;49.350;8.152;2023-02-01T00:48:52;19;;;26;;
54458;SDS011;40368;49.350;8.152;2023-02-01T00:49:52;18;;;21;;
54458;SDS011;40368;49.350;8.152;2023-02-01T00:50:52;14;;;24;;
54458;SDS011;40368;49.350;8.152;2023-02-01T00:51:52;18;;;20;;
54458;SDS011;40368;49.350;8.152;2023-02-01T00:52:52;22;;;26;;
54458;SDS011;40368;49.350;8.152;2023-02-01T00:55:52;17;;;19;;
54458;SDS011;40368;49.350;8.152;2023-02-01T00:56:52;22;;;35;;
54458;SDS011;40368;49.350;8.152;2023-02-01T00:57:53;19;;;23;;
54458;SDS011;40368;49.350;8.152;2023-02-01T00:58:52;18;;;19;;
54458;SDS011;40368;49.350;8.152;2023-02-01T00:59:52;18;;;21;;
54458;SDS011;40368;49.350;8.152;2023-02-01T01:01:00;21;;;28;;
54458;SDS011;40368;49.350;8.152;2023-02-01T01:01:59;23;;;29;;
54458;SDS011;40368;49.350;8.152;2023-02-01T01:02:59;21;;;30;;
54458;SDS011;40368;49.350;8.152;2023-02-01T01:04:52;18;;;20;;
54458;SDS011;40368;49.350;8.152;2023-02-01T01:05:56;22;;;24;;
54458;SDS011;40368;49.350;8.152;2023-02-01T01:06:56;24;;;46;;
54458;SDS011;40368;49.350;8.152;2023-02-01T01:07:52;21;;;26;;
54458;SDS011;40368;49.350;8.152;2023-02-01T01:08:52;21;;;23;;
54458;SDS011;40368;49.350;8.152;2023-02-01T01:09:59;18;;;32;;
54458;SDS011;40368;49.350;8.152;2023-02-01T01:10:59;22;;;32;;
54458;SDS011;40368;49.350;8.152;2023-02-01T01:11:52;20;;;28;;
54458;SDS011;40368;49.350;8.152;2023-02-01T01:12:52;23;;;29;;
54458;SDS011;40368;49.350;8.152;2023-02-01T01:14:52;21;;;48;;
54458;SDS011;40368;49.350;8.152;2023-02-01T01:15:52;25;;;45;;
54458;SDS011;40368;49.350;8.152;2023-02-01T01:16:52;24;;;26;;
54458;SDS011;40368;49.350;8.152;2023-02-01T01:17:52;21;;;26;;
54458;SDS011;40368;49.350;8.152;2023-02-01T01:18:52;20;;;44;;
54458;SDS011;40368;49.350;8.152;2023-02-01T01:19:52;20;;;22;;
54458;SDS011;40368;49.350;8.152;2023-02-01T01:20:52;22;;;25;;
54458;SDS011;40368;49.350;8.152;2023-02-01T01:21:52;21;;;34;;
54458;SDS011;40368;49.350;8.152;2023-02-01T01:22:52;24;;;27;;
54458;SDS011;40368;49.350;8.152;2023-02-01T01:23:52;22;;;29;;
54458;SDS011;40368;49.350;8.152;2023-02-01T01:24:52;26;;;41;;
54458;SDS011;40368;49.350;8.152;2023-02-01T01:25:52;24;;;28;;
54458;SDS011;40368;49.350;8.152;2023-02-01T01:27:52;22;;;36;;
54458;SDS011;40368;49.350;8.152;2023-02-01T01:28:54;19;;;33;;
54458;SDS011;40368;49.350;8.152;2023-02-01T01:29:52;21;;;45;;
54458;SDS011;40368;49.350;8.152;2023-02-01T01:30:52;21;;;23;;
54458;SDS011;40368;49.350;8.152;2023-02-01T01:33:53;21;;;26;;
54458;SDS011;40368;49.350;8.152;2023-02-01T01:34:52;20;;;39;;
54458;SDS011;40368;49.350;8.152;2023-02-01T01:35:52;30;;;44;;
54458;SDS011;40368;49.350;8.152;2023-02-01T01:36:52;21;;;23;;
54458;SDS011;40368;49.350;8.152;2023-02-01T01:37:52;18;;;24;;
54458;SDS011;40368;49.350;8.152;2023-02-01T01:38:52;24;;;37;;
54458;SDS011;40368;49.350;8.152;2023-02-01T01:39:52;22;;;48;;
54458;SDS011;40368;49.350;8.152;2023-02-01T01:40:52;22;;;39;;
54458;SDS011;40368;49.350;8.152;2023-02-01T01:41:52;25;;;43;;
54458;SDS011;40368;49.350;8.152;2023-02-01T01:44:57;19;;;43;;
54458;SDS011;40368;49.350;8.152;2023-02-01T01:46:52;25;;;48;;
54458;SDS011;40368;49.350;8.152;2023-02-01T01:47:57;19;;;35;;
54458;SDS011;40368;49.350;8.152;2023-02-01T01:48:54;20;;;24;;
54458;SDS011;40368;49.350;8.152;2023-02-01T01:49:52;25;;;47;;
54458;SDS011;40368;49.350;8.152;2023-02-01T01:50:54;21;;;41;;
54458;SDS011;40368;49.350;8.152;2023-02-01T01:51:53;23;;;33;;
54458;SDS011;40368;49.350;8.152;2023-02-01T01:54:00;26;;;39;;
54458;SDS011;40368;49.350;8.152;2023-02-01T01:54:52;21;;;33;;
54458;SDS011;40368;49.350;8.152;2023-02-01T01:55:52;22;;;31;;
54458;SDS011;40368;49.350;8.152;2023-02-01T01:56:53;20;;;35;;
54458;SDS011;40368;49.350;8.152;2023-02-01T01:57:59;22;;;45;;
54458;SDS011;40368;49.350;8.152;2023-02-01T01:58:59;22;;;30;;
54458;SDS011;40368;49.350;8.152;2023-02-01T01:59:53;23;;;32;;
54458;SDS011;40368;49.350;8.152;2023-02-01T02:00:52;22;;;28;;
54458;SDS011;40368;49.350;8.152;2023-02-01T02:01:52;23;;;37;;
54458;SDS011;40368;49.350;8.152;2023-02-01T02:02:53;25;;;40;;
54458;SDS011;40368;49.350;8.152;2023-02-01T02:03:52;23;;;44;;
54458;SDS011;40368;49.350;8.152;2023-02-01T02:04:52;27;;;56;;
54458;SDS011;40368;49.350;8.152;2023-02-01T02:05:53;24;;;31;;
54458;SDS011;40368;49.350;8.152;2023-02-01T02:06:54;25;;;32;;
54458;SDS011;40368;49.350;8.152;2023-02-01T02:07:53;24;;;44;;
54458;SDS011;40368;49.350;8.152;2023-02-01T02:09:59;24;;;37;;
54458;SDS011;40368;49.350;8.152;2023-02-01T02:10:52;20;;;23;;
54458;SDS011;40368;49.350;8.152;2023-02-01T02:11:52;25;;;39;;
54458;SDS011;40368;49.350;8.152;2023-02-01T02:12:52;25;;;32;;
54458;SDS011;40368;49.350;8.152;2023-02-01T02:13:53;27;;;32;;
54458;SDS011;40368;49.350;8.152;2023-02-01T02:14:52;28;;;48;;
54458;SDS011;40368;49.350;8.152;2023-02-01T02:15:55;27;;;39;;
54458;SDS011;40368;49.350;8.152;2023-02-01T02:16:56;24;;;28;;
54458;SDS011;40368;49.350;8.152;2023-02-01T02:17:54;25;;;34;;
54458;SDS011;40368;49.350;8.152;2023-02-01T02:18:55;24;;;26;;
54458;SDS011;40368;49.350;8.152;2023-02-01T02:20:03;26;;;34;;
54458;SDS011;40368;49.350;8.152;2023-02-01T02:20:57;28;;;44;;
54458;SDS011;40368;49.350;8.152;2023-02-01T02:21:59;24;;;38;;
54458;SDS011;40368;49.350;8.152;2023-02-01T02:23:35;27;;;35;;
54458;SDS011;40368;49.350;8.152;2023-02-01T02:24:09;24;;;27;;
54458;SDS011;40368;49.350;8.152;2023-02-01T02:24:57;25;;;30;;
54458;SDS011;40368;49.350;8.152;2023-02-01T02:26:14;26;;;47;;
54458;SDS011;40368;49.350;8.152;2023-02-01T02:26:56;29;;;41;;
54458;SDS011;40368;49.350;8.152;2023-02-01T02:27:53;27;;;49;;
54458;SDS011;40368;49.350;8.152;2023-02-01T02:30:02;27;;;43;;
54458;SDS011;40368;49.350;8.152;2023-02-01T02:31:00;26;;;42;;
54458;SDS011;40368;49.350;8.152;2023-02-01T02:32:56;28;;;39;;
54458;SDS011;40368;49.350;8.152;2023-02-01T02:33:55;27;;;52;;
54458;SDS011;40368;49.350;8.152;2023-02-01T02:34:53;21;;;32;;
54458;SDS011;40368;49.350;8.152;2023-02-01T02:35:54;29;;;47;;
54458;SDS011;40368;49.350;8.152;2023-02-01T02:36:55;28;;;32;;
54458;SDS011;40368;49.350;8.152;2023-02-01T02:37:53;24;;;47;;
54458;SDS011;40368;49.350;8.152;2023-02-01T02:38:54;21;;;49;;
54458;SDS011;40368;49.350;8.152;2023-02-01T02:39:55;25;;;31;;
54458;SDS011;40368;49.350;8.152;2023-02-01T02:40:54;27;;;43;;
54458;SDS011;40368;49.350;8.152;2023-02-01T02:41:54;24;;;38;;
54458;SDS011;40368;49.350;8.152;2023-02-01T02:42:53;24;;;38;;
54458;SDS011;40368;49.350;8.152;2023-02-01T02:43:53;21;;;37;;
54458;SDS011;40368;49.350;8.152;2023-02-01T02:44:54;18;;;22;;
54458;SDS011;40368;49.350;8.152;2023-02-01T02:45:53;25;;;35;;
54458;SDS011;40368;49.350;8.152;2023-02-01T02:46:52;20;;;36;;
54458;SDS011;40368;49.350;8.152;2023-02-01T02:47:54;19;;;27;;
54458;SDS011;40368;49.350;8.152;2023-02-01T02:48:54;20;;;30;;
54458;SDS011;40368;49.350;8.152;2023-02-01T02:49:54;20;;;41;;
54458;SDS011;40368;49.350;8.152;2023-02-01T02:50:53;16;;;29;;
54458;SDS011;40368;49.350;8.152;2023-02-01T02:51:53;19;;;34;;
54458;SDS011;40368;49.350;8.152;2023-02-01T02:52:54;23;;;30;;
54458;SDS011;40368;49.350;8.152;2023-02-01T02:53:53;19;;;35;;
54458;SDS011;40368;49.350;8.152;2023-02-01T02:54:52;22;;;39;;
54458;SDS011;40368;49.350;8.152;2023-02-01T02:55:52;19;;;26;;
54458;SDS011;40368;49.350;8.152;2023-02-01T02:56:52;24;;;37;;
54458;SDS011;40368;49.350;8.152;2023-02-01T02:57:52;19;;;29;;
54458;SDS011;40368;49.350;8.152;2023-02-01T02:58:52;19;;;38;;
54458;SDS011;40368;49.350;8.152;2023-02-01T02:59:52;25;;;56;;
54458;SDS011;40368;49.350;8.152;2023-02-01T03:00:52;21;;;26;;
54458;SDS011;40368;49.350;8.152;2023-02-01T03:02:52;27;;;42;;
54458;SDS011;40368;49.350;8.152;2023-02-01T03:03:53;23;;;53;;
54458;SDS011;40368;49.350;8.152;2023-02-01T03:04:52;23;;;29;;
54458;SDS011;40368;49.350;8.152;2023-02-01T03:05:52;26;;;64;;
54458;SDS011;40368;49.350;8.152;2023-02-01T03:06:52;22;;;49;;
54458;SDS011;40368;49.350;8.152;2023-02-01T03:07:53;21;;;40;;
54458;SDS011;40368;49.350;8.152;2023-02-01T03:08:53;24;;;36;;
54458;SDS011;40368;49.350;8.152;2023-02-01T03:09:52;26;;;55;;
54458;SDS011;40368;49.350;8.152;2023-02-01T03:10:53;24;;;34;;
54458;SDS011;40368;49.350;8.152;2023-02-01T03:11:53;23;;;41;;
54458;SDS011;40368;49.350;8.152;2023-02-01T03:12:52;23;;;30;;
54458;SDS011;40368;49.350;8.152;2023-02-01T03:14:54;27;;;53;;
54458;SDS011;40368;49.350;8.152;2023-02-01T03:15:54;27;;;30;;
54458;SDS011;40368;49.350;8.152;2023-02-01T03:17:52;23;;;45;;
54458;SDS011;40368;49.350;8.152;2023-02-01T03:18:53;22;;;48;;
54458;SDS011;40368;49.350;8.152;2023-02-01T03:20:52;21;;;48;;
54458;SDS011;40368;49.350;8.152;2023-02-01T03:22:03;23;;;52;;
54458;SDS011;40368;49.350;8.152;2023-02-01T03:23:02;21;;;49;;
54458;SDS011;40368;49.350;8.152;2023-02-01T03:23:52;22;;;42;;
54458;SDS011;40368;49.350;8.152;2023-02-01T03:24:53;22;;;29;;
54458;SDS011;40368;49.350;8.152;2023-02-01T03:25:52;24;;;35;;
54458;SDS011;40368;49.350;8.152;2023-02-01T03:26:53;22;;;37;;
54458;SDS011;40368;49.350;8.152;2023-02-01T03:27:53;21;;;41;;
54458;SDS011;40368;49.350;8.152;2023-02-01T03:28:54;24;;;44;;
54458;SDS011;40368;49.350;8.152;2023-02-01T03:29:54;20;;;27;;
54458;SDS011;40368;49.350;8.152;2023-02-01T03:33:52;22;;;45;;
54458;SDS011;40368;49.350;8.152;2023-02-01T03:34:52;24;;;36;;
54458;SDS011;40368;49.350;8.152;2023-02-01T03:35:55;26;;;69;;
54458;SDS011;40368;49.350;8.152;2023-02-01T03:36:55;23;;;57;;
54458;SDS011;40368;49.350;8.152;2023-02-01T03:37:52;24;;;44;;
54458;SDS011;40368;49.350;8.152;2023-02-01T03:38:55;24;;;37;;
54458;SDS011;40368;49.350;8.152;2023-02-01T03:40:53;22;;;48;;
54458;SDS011;40368;49.350;8.152;2023-02-01T03:42:03;26;;;48;;
54458;SDS011;40368;49.350;8.152;2023-02-01T03:43:03;23;;;52;;
54458;SDS011;40368;49.350;8.152;2023-02-01T03:43:53;25;;;53;;
54458;SDS011;40368;49.350;8.152;2023-02-01T03:44:53;21;;;32;;
54458;SDS011;40368;49.350;8.152;2023-02-01T03:45:53;22;;;60;;
54458;SDS011;40368;49.350;8.152;2023-02-01T03:46:53;22;;;42;;
54458;SDS011;40368;49.350;8.152;2023-02-01T03:47:53;23;;;43;;
54458;SDS011;40368;49.350;8.152;2023-02-01T03:48:52;27;;;43;;
54458;SDS011;40368;49.350;8.152;2023-02-01T03:49:53;19;;;40;;
54458;SDS011;40368;49.350;8.152;2023-02-01T03:50:53;26;;;72;;
54458;SDS011;40368;49.350;8.152;2023-02-01T03:52:03;26;;;48;;
54458;SDS011;40368;49.350;8.152;2023-02-01T03:53:04;24;;;47;;
54458;SDS011;40368;49.350;8.152;2023-02-01T03:53:52;21;;;50;;
54458;SDS011;40368;49.350;8.152;2023-02-01T03:54:52;25;;;41;;
54458;SDS011;40368;49.350;8.152;2023-02-01T03:55:52;30;;;63;;
54458;SDS011;40368;49.350;8.152;2023-02-01T03:56:52;24;;;49;;
54458;SDS011;40368;49.350;8.152;2023-02-01T03:57:53;21;;;41;;
54458;SDS011;40368;49.350;8.152;2023-02-01T03:58:52;28;;;68;;
54458;SDS011;40368;49.350;8.152;2023-02-01T03:59:52;29;;;61;;
54458;SDS011;40368;49.350;8.152;2023-02-01T04:00:53;26;;;35;;
54458;SDS011;40368;49.350;8.152;2023-02-01T04:01:52;30;;;72;;
54458;SDS011;40368;49.350;8.152;2023-02-01T04:02:52;24;;;42;;
54458;SDS011;40368;49.350;8.152;2023-02-01T04:03:52;22;;;33;;
54458;SDS011;40368;49.350;8.152;2023-02-01T04:04:52;21;;;41;;
54458;SDS011;40368;49.350;8.152;2023-02-01T04:05:52;22;;;37;;
54458;SDS011;40368;49.350;8.152;2023-02-01T04:06:52;21;;;38;;
54458;SDS011;40368;49.350;8.152;2023-02-01T04:07:54;23;;;52;;
54458;SDS011;40368;49.350;8.152;2023-02-01T04:08:54;20;;;26;;
54458;SDS011;40368;49.350;8.152;2023-02-01T04:09:52;13;;;14;;
54458;SDS011;40368;49.350;8.152;2023-02-01T04:10:52;21;;;27;;
54458;SDS011;40368;49.350;8.152;2023-02-01T04:11:52;19;;;53;;
54458;SDS011;40368;49.350;8.152;2023-02-01T04:12:52;18;;;45;;
54458;SDS011;40368;49.350;8.152;2023-02-01T04:13:52;21;;;36;;
54458;SDS011;40368;49.350;8.152;2023-02-01T04:14:52;17;;;34;;
54458;SDS011;40368;49.350;8.152;2023-02-01T04:15:52;17;;;35;;
54458;SDS011;40368;49.350;8.152;2023-02-01T04:16:52;16;;;39;;
54458;SDS011;40368;49.350;8.152;2023-02-01T04:17:52;21;;;41;;
54458;SDS011;40368;49.350;8.152;2023-02-01T04:19:03;20;;;45;;
54458;SDS011;40368;49.350;8.152;2023-02-01T04:20:03;19;;;30;;
54458;SDS011;40368;49.350;8.152;2023-02-01T04:20:52;20;;;40;;
54458;SDS011;40368;49.350;8.152;2023-02-01T04:21:52;17;;;27;;
54458;SDS011;40368;49.350;8.152;2023-02-01T04:22:52;16;;;26;;
54458;SDS011;40368;49.350;8.152;2023-02-01T04:23:52;15;;;31;;
54458;SDS011;40368;49.350;8.152;2023-02-01T04:24:52;17;;;47;;
54458;SDS011;40368;49.350;8.152;2023-02-01T04:25:52;17;;;25;;
54458;SDS011;40368;49.350;8.152;2023-02-01T04:26:52;16;;;21;;
54458;SDS011;40368;49.350;8.152;2023-02-01T04:27:52;19;;;37;;
54458;SDS011;40368;49.350;8.152;2023-02-01T04:28:52;18;;;37;;
54458;SDS011;40368;49.350;8.152;2023-02-01T04:29:52;19;;;30;;
54458;SDS011;40368;49.350;8.152;2023-02-01T04:30:52;24;;;40;;
54458;SDS011;40368;49.350;8.152;2023-02-01T04:32:03;19;;;35;;
54458;SDS011;40368;49.350;8.152;2023-02-01T04:32:52;20;;;27;;
54458;SDS011;40368;49.350;8.152;2023-02-01T04:34:02;20;;;45;;
54458;SDS011;40368;49.350;8.152;2023-02-01T04:34:52;23;;;53;;
54458;SDS011;40368;49.350;8.152;2023-02-01T04:35:52;26;;;64;;
54458;SDS011;40368;49.350;8.152;2023-02-01T04:36:52;20;;;47;;
54458;SDS011;40368;49.350;8.152;2023-02-01T04:37:52;21;;;48;;
54458;SDS011;40368;49.350;8.152;2023-02-01T04:38:52;20;;;35;;
54458;SDS011;40368;49.350;8.152;2023-02-01T04:39:52;22;;;34;;
54458;SDS011;40368;49.350;8.152;2023-02-01T04:40:52;21;;;43;;
54458;SDS011;40368;49.350;8.152;2023-02-01T04:41:52;21;;;41;;
54458;SDS011;40368;49.350;8.152;2023-02-01T04:44:03;21;;;51;;
54458;SDS011;40368;49.350;8.152;2023-02-01T04:44:52;21;;;57;;
54458;SDS011;40368;49.350;8.152;2023-02-01T04:46:03;16;;;18;;
54458;SDS011;40368;49.350;8.152;2023-02-01T04:47:03;18;;;27;;
54458;SDS011;40368;49.350;8.152;2023-02-01T04:47:52;19;;;32;;
54458;SDS011;40368;49.350;8.152;2023-02-01T04:48:52;17;;;30;;
54458;SDS011;40368;49.350;8.152;2023-02-01T04:49:52;20;;;47;;
54458;SDS011;40368;49.350;8.152;2023-02-01T04:51:52;14;;;30;;
54458;SDS011;40368;49.350;8.152;2023-02-01T04:52:52;17;;;35;;
54458;SDS011;40368;49.350;8.152;2023-02-01T04:53:52;15;;;22;;
54458;SDS011;40368;49.350;8.152;2023-02-01T04:54:52;14;;;21;;
54458;SDS011;40368;49.350;8.152;2023-02-01T04:55:52;18;;;54;;
54458;SDS011;40368;49.350;8.152;2023-02-01T04:56:52;17;;;32;;
54458;SDS011;40368;49.350;8.152;2023-02-01T04:57:52;17;;;30;;
54458;SDS011;40368;49.350;8.152;2023-02-01T04:58:52;19;;;31;;
54458;SDS011;40368;49.350;8.152;2023-02-01T04:59:52;18;;;39;;
54458;SDS011;40368;49.350;8.152;2023-02-01T05:00:52;17;;;39;;
54458;SDS011;40368;49.350;8.152;2023-02-01T05:01:52;18;;;30;;
54458;SDS011;40368;49.350;8.152;2023-02-01T05:02:52;17;;;25;;
54458;SDS011;40368;49.350;8.152;2023-02-01T05:03:52;19;;;44;;
54458;SDS011;40368;49.350;8.152;2023-02-01T05:04:52;14;;;30;;
54458;SDS011;40368;49.350;8.152;2023-02-01T05:05:52;21;;;41;;
54458;SDS011;40368;49.350;8.152;2023-02-01T05:06:52;21;;;42;;
54458;SDS011;40368;49.350;8.152;2023-02-01T05:07:52;21;;;40;;
54458;SDS011;40368;49.350;8.152;2023-02-01T05:08:52;21;;;40;;
54458;SDS011;40368;49.350;8.152;2023-02-01T05:09:52;20;;;29;;
54458;SDS011;40368;49.350;8.152;2023-02-01T05:11:52;20;;;33;;
54458;SDS011;40368;49.350;8.152;2023-02-01T05:12:52;20;;;39;;
54458;SDS011;40368;49.350;8.152;2023-02-01T05:13:52;26;;;55;;
54458;SDS011;40368;49.350;8.152;2023-02-01T05:14:52;25;;;42;;
54458;SDS011;40368;49.350;8.152;2023-02-01T05:16:52;25;;;48;;
54458;SDS011;40368;49.350;8.152;2023-02-01T05:17:52;22;;;27;;
54458;SDS011;40368;49.350;8.152;2023-02-01T05:18:53;26;;;86;;
54458;SDS011;40368;49.350;8.152;2023-02-01T05:20:52;23;;;65;;
54458;SDS011;40368;49.350;8.152;2023-02-01T05:21:52;26;;;79;;
54458;SDS011;40368;49.350;8.152;2023-02-01T05:22:52;24;;;57;;
54458;SDS011;40368;49.350;8.152;2023-02-01T05:23:52;22;;;50;;
54458;SDS011;40368;49.350;8.152;2023-02-01T05:24:52;22;;;54;;
54458;SDS011;40368;49.350;8.152;2023-02-01T05:25:52;21;;;56;;
54458;SDS011;40368;49.350;8.152;2023-02-01T05:26:52;18;;;30;;
54458;SDS011;40368;49.350;8.152;2023-02-01T05:27:53;21;;;34;;
54458;SDS011;40368;49.350;8.152;2023-02-01T05:28:52;17;;;37;;
54458;SDS011;40368;49.350;8.152;2023-02-01T05:29:52;19;;;33;;
54458;SDS011;40368;49.350;8.152;2023-02-01T05:30:52;16;;;22;;
54458;SDS011;40368;49.350;8.152;2023-02-01T05:31:52;14;;;18;;
54458;SDS011;40368;49.350;8.152;2023-02-01T05:32:52;15;;;28;;
54458;SDS011;40368;49.350;8.152;2023-02-01T05:33:52;15;;;33;;
54458;SDS011;40368;49.350;8.152;2023-02-01T05:34:52;15;;;26;;
54458;SDS011;40368;49.350;8.152;2023-02-01T05:35:52;15;;;27;;
54458;SDS011;40368;49.350;8.152;2023-02-01T05:36:52;13;;;38;;
54458;SDS011;40368;49.350;8.152;2023-02-01T05:37:52;14;;;23;;
54458;SDS011;40368;49.350;8.152;2023-02-01T05:38:52;13;;;19;;
54458;SDS011;40368;49.350;8.152;2023-02-01T05:39:52;12;;;26;;
54458;SDS011;40368;49.350;8.152;2023-02-01T05:40:52;11;;;23;;
54458;SDS011;40368;49.350;8.152;2023-02-01T05:41:52;14;;;29;;
54458;SDS011;40368;49.350;8.152;2023-02-01T05:42:52;14;;;19;;
54458;SDS011;40368;49.350;8.152;2023-02-01T05:43:52;15;;;23;;
54458;SDS011;40368;49.350;8.152;2023-02-01T05:44:52;16;;;31;;
54458;SDS011;40368;49.350;8.152;2023-02-01T05:45:52;17;;;38;;
54458;SDS011;40368;49.350;8.152;2023-02-01T05:46:52;14;;;35;;
54458;SDS011;40368;49.350;8.152;2023-02-01T05:48:03;18;;;22;;
54458;SDS011;40368;49.350;8.152;2023-02-01T05:48:52;16;;;30;;
54458;SDS011;40368;49.350;8.152;2023-02-01T05:49:52;17;;;33;;
54458;SDS011;40368;49.350;8.152;2023-02-01T05:51:02;20;;;53;;
54458;SDS011;40368;49.350;8.152;2023-02-01T05:51:52;25;;;53;;
54458;SDS011;40368;49.350;8.152;2023-02-01T05:53:52;23;;;47;;
54458;SDS011;40368;49.350;8.152;2023-02-01T05:54:52;22;;;46;;
54458;SDS011;40368;49.350;8.152;2023-02-01T05:55:52;24;;;59;;
54458;SDS011;40368;49.350;8.152;2023-02-01T05:57:52;28;;;67;;
54458;SDS011;40368;49.350;8.152;2023-02-01T05:58:52;27;;;101;;
54458;SDS011;40368;49.350;8.152;2023-02-01T06:00:03;29;;;92;;
54458;SDS011;40368;49.350;8.152;2023-02-01T06:00:52;29;;;61;;
54458;SDS011;40368;49.350;8.152;2023-02-01T06:02:02;31;;;72;;
54458;SDS011;40368;49.350;8.152;2023-02-01T06:02:52;25;;;49;;
54458;SDS011;40368;49.350;8.152;2023-02-01T06:03:52;30;;;77;;
54458;SDS011;40368;49.350;8.152;2023-02-01T06:04:52;26;;;42;;
54458;SDS011;40368;49.350;8.152;2023-02-01T06:06:52;22;;;47;;
54458;SDS011;40368;49.350;8.152;2023-02-01T06:07:52;26;;;77;;
54458;SDS011;40368;49.350;8.152;2023-02-01T06:08:52;24;;;45;;
54458;SDS011;40368;49.350;8.152;2023-02-01T06:09:52;30;;;84;;
54458;SDS011;40368;49.350;8.152;2023-02-01T06:10:56;23;;;76;;
54458;SDS011;40368;49.350;8.152;2023-02-01T06:12:03;30;;;61;;
54458;SDS011;40368;49.350;8.152;2023-02-01T06:12:52;26;;;75;;
54458;SDS011;40368;49.350;8.152;2023-02-01T06:14:02;25;;;50;;
54458;SDS011;40368;49.350;8.152;2023-02-01T06:14:52;25;;;45;;
54458;SDS011;40368;49.350;8.152;2023-02-01T06:15:52;25;;;48;;
54458;SDS011;40368;49.350;8.152;2023-02-01T06:16:52;24;;;59;;
54458;SDS011;40368;49.350;8.152;2023-02-01T06:17:52;23;;;46;;
54458;SDS011;40368;49.350;8.152;2023-02-01T06:18:52;26;;;61;;
54458;SDS011;40368;49.350;8.152;2023-02-01T06:19:52;38;;;63;;
54458;SDS011;40368;49.350;8.152;2023-02-01T06:20:53;31;;;82;;
54458;SDS011;40368;49.350;8.152;2023-02-01T06:21:52;25;;;67;;
54458;SDS011;40368;49.350;8.152;2023-02-01T06:23:52;28;;;115;;
54458;SDS011;40368;49.350;8.152;2023-02-01T06:24:52;27;;;79;;
54458;SDS011;40368;49.350;8.152;2023-02-01T06:25:52;31;;;71;;
54458;SDS011;40368;49.350;8.152;2023-02-01T06:26:52;30;;;79;;
54458;SDS011;40368;49.350;8.152;2023-02-01T06:27:52;23;;;51;;
54458;SDS011;40368;49.350;8.152;2023-02-01T06:28:52;24;;;55;;
54458;SDS011;40368;49.350;8.152;2023-02-01T06:29:52;23;;;60;;
54458;SDS011;40368;49.350;8.152;2023-02-01T06:30:52;27;;;55;;
54458;SDS011;40368;49.350;8.152;2023-02-01T06:31:52;23;;;78;;
54458;SDS011;40368;49.350;8.152;2023-02-01T06:32:52;23;;;54;;
54458;SDS011;40368;49.350;8.152;2023-02-01T06:33:52;26;;;95;;
54458;SDS011;40368;49.350;8.152;2023-02-01T06:34:52;25;;;52;;
54458;SDS011;40368;49.350;8.152;2023-02-01T06:35:56;24;;;63;;
54458;SDS011;40368;49.350;8.152;2023-02-01T06:36:52;21;;;40;;
54458;SDS011;40368;49.350;8.152;2023-02-01T06:37:52;22;;;76;;
54458;SDS011;40368;49.350;8.152;2023-02-01T06:38:52;23;;;46;;
54458;SDS011;40368;49.350;8.152;2023-02-01T06:39:52;25;;;89;;
54458;SDS011;40368;49.350;8.152;2023-02-01T06:40:52;23;;;50;;
54458;SDS011;40368;49.350;8.152;2023-02-01T06:41:52;26;;;112;;
54458;SDS011;40368;49.350;8.152;2023-02-01T06:42:52;21;;;61;;
54458;SDS011;40368;49.350;8.152;2023-02-01T06:43:52;20;;;56;;
54458;SDS011;40368;49.350;8.152;2023-02-01T06:44:52;28;;;87;;
54458;SDS011;40368;49.350;8.152;2023-02-01T06:45:52;26;;;69;;
54458;SDS011;40368;49.350;8.152;2023-02-01T06:46:52;22;;;74;;
54458;SDS011;40368;49.350;8.152;2023-02-01T06:48:02;25;;;78;;
54458;SDS011;40368;49.350;8.152;2023-02-01T06:50:03;21;;;55;;
54458;SDS011;40368;49.350;8.152;2023-02-01T06:51:03;23;;;55;;
54458;SDS011;40368;49.350;8.152;2023-02-01T06:51:54;25;;;72;;
54458;SDS011;40368;49.350;8.152;2023-02-01T06:52:56;21;;;64;;
54458;SDS011;40368;49.350;8.152;2023-02-01T06:54:02;25;;;71;;
54458;SDS011;40368;49.350;8.152;2023-02-01T06:54:52;22;;;84;;
54458;SDS011;40368;49.350;8.152;2023-02-01T06:56:03;19;;;61;;
54458;SDS011;40368;49.350;8.152;2023-02-01T06:56:52;21;;;63;;
54458;SDS011;40368;49.350;8.152;2023-02-01T06:57:53;25;;;82;;
54458;SDS011;40368;49.350;8.152;2023-02-01T06:58:52;24;;;56;;
54458;SDS011;40368;49.350;8.152;2023-02-01T07:00:52;30;;;67;;